sensor_id;sensor_type;location;lat;lon;timestamp;pressure;altitude;pressure_sealevel;temperature;humidity
56928;BME280;60850;52.502;13.426;2022-10-03T00:01:42;101343.81;;;11.16;100.00
56928;BME280;60850;52.502;13.426;2022-10-03T00:04:24;101357.00;;;11.24;100.00
56928;BME280;60850;52.502;13.426;2022-10-03T00:07:02;101349.69;;;11.35;100.00
56928;BME280;60850;52.502;13.426;2022-10-03T00:09:43;101352.22;;;11.43;100.00
56928;BME280;60850;52.502;13.426;2022-10-03T00:12:30;101351.09;;;11.53;100.00
56928;BME280;60850;52.502;13.426;2022-10-03T00:15:04;101361.66;;;11.59;100.00
56928;BME280;60850;52.502;13.426;2022-10-03T00:17:42;101352.63;;;11.65;100.00
56928;BME280;60850;52.502;13.426;2022-10-03T00:20:30;101368.53;;;11.71;100.00
56928;BME280;60850;52.502;13.426;2022-10-03T00:23:03;101362.19;;;11.75;100.00
56928;BME280;60850;52.502;13.426;2022-10-03T00:25:39;101364.72;;;11.84;100.00
56928;BME280;60850;52.502;13.426;2022-10-03T00:28:18;101365.59;;;11.85;100.00
56928;BME280;60850;52.502;13.426;2022-10-03T00:31:01;101374.50;;;11.83;100.00
56928;BME280;60850;52.502;13.426;2022-10-03T00:33:38;101364.72;;;11.84;100.00
56928;BME280;60850;52.502;13.426;2022-10-03T00:36:14;101364.72;;;11.84;100.00
56928;BME280;60850;52.502;13.426;2022-10-03T00:39:02;101379.03;;;11.80;100.00
56928;BME280;60850;52.502;13.426;2022-10-03T00:41:54;101375.34;;;11.87;100.00
56928;BME280;60850;52.502;13.426;2022-10-03T00:47:51;101372.63;;;11.89;100.00
56928;BME280;60850;52.502;13.426;2022-10-03T00:50:46;101376.28;;;11.85;100.00
56928;BME280;60850;52.502;13.426;2022-10-03T00:53:32;101373.66;;;11.81;100.00
56928;BME280;60850;52.502;13.426;2022-10-03T00:59:12;101378.25;;;11.73;100.00
56928;BME280;60850;52.502;13.426;2022-10-03T01:01:45;101379.22;;;11.71;100.00
56928;BME280;60850;52.502;13.426;2022-10-03T01:04:23;101376.59;;;11.68;100.00
56928;BME280;60850;52.502;13.426;2022-10-03T01:07:01;101381.97;;;11.66;100.00
56928;BME280;60850;52.502;13.426;2022-10-03T01:09:50;101377.59;;;11.64;100.00
56928;BME280;60850;52.502;13.426;2022-10-03T01:12:51;101382.00;;;11.65;100.00
56928;BME280;60850;52.502;13.426;2022-10-03T01:15:30;101383.81;;;11.63;100.00
56928;BME280;60850;52.502;13.426;2022-10-03T01:18:15;101381.16;;;11.63;100.00
56928;BME280;60850;52.502;13.426;2022-10-03T01:20:53;101400.78;;;11.60;100.00
56928;BME280;60850;52.502;13.426;2022-10-03T01:23:51;101405.22;;;11.61;100.00
56928;BME280;60850;52.502;13.426;2022-10-03T01:26:48;101398.97;;;11.64;100.00
56928;BME280;60850;52.502;13.426;2022-10-03T01:29:21;101403.34;;;11.66;100.00
56928;BME280;60850;52.502;13.426;2022-10-03T01:32:12;101396.13;;;11.71;100.00
56928;BME280;60850;52.502;13.426;2022-10-03T01:34:47;101401.34;;;11.76;100.00
56928;BME280;60850;52.502;13.426;2022-10-03T01:37:22;101404.84;;;11.81;100.00
56928;BME280;60850;52.502;13.426;2022-10-03T01:39:58;101410.16;;;11.82;100.00
56928;BME280;60850;52.502;13.426;2022-10-03T01:42:37;101411.91;;;11.85;100.00
56928;BME280;60850;52.502;13.426;2022-10-03T01:45:20;101408.28;;;11.88;100.00
56928;BME280;60850;52.502;13.426;2022-10-03T01:47:54;101410.09;;;11.86;100.00
56928;BME280;60850;52.502;13.426;2022-10-03T01:50:29;101415.41;;;11.87;100.00
56928;BME280;60850;52.502;13.426;2022-10-03T01:53:03;101403.81;;;11.88;100.00
56928;BME280;60850;52.502;13.426;2022-10-03T01:55:40;101407.47;;;11.82;100.00
56928;BME280;60850;52.502;13.426;2022-10-03T01:58:25;101403.16;;;11.75;100.00
56928;BME280;60850;52.502;13.426;2022-10-03T02:00:58;101407.69;;;11.72;100.00
56928;BME280;60850;52.502;13.426;2022-10-03T02:03:30;101414.88;;;11.68;100.00
56928;BME280;60850;52.502;13.426;2022-10-03T02:06:08;101419.34;;;11.68;100.00
56928;BME280;60850;52.502;13.426;2022-10-03T02:08:49;101430.81;;;11.73;100.00
56928;BME280;60850;52.502;13.426;2022-10-03T02:11:27;101423.63;;;11.75;100.00
56928;BME280;60850;52.502;13.426;2022-10-03T02:13:59;101412.94;;;11.75;100.00
56928;BME280;60850;52.502;13.426;2022-10-03T02:16:39;101415.44;;;11.86;100.00
56928;BME280;60850;52.502;13.426;2022-10-03T02:19:16;101414.50;;;11.88;100.00
56928;BME280;60850;52.502;13.426;2022-10-03T02:21:47;101425.06;;;11.94;100.00
56928;BME280;60850;52.502;13.426;2022-10-03T02:24:27;101413.44;;;11.95;100.00
56928;BME280;60850;52.502;13.426;2022-10-03T02:30:11;101417.88;;;11.96;100.00
56928;BME280;60850;52.502;13.426;2022-10-03T02:33:16;101421.44;;;11.98;100.00
56928;BME280;60850;52.502;13.426;2022-10-03T02:36:14;101424.97;;;11.97;100.00
56928;BME280;60850;52.502;13.426;2022-10-03T02:39:09;101424.09;;;11.97;100.00
56928;BME280;60850;52.502;13.426;2022-10-03T02:41:51;101419.59;;;12.00;100.00
56928;BME280;60850;52.502;13.426;2022-10-03T02:45:00;101423.22;;;11.96;100.00
56928;BME280;60850;52.502;13.426;2022-10-03T02:47:55;101424.22;;;11.91;100.00
56928;BME280;60850;52.502;13.426;2022-10-03T02:50:48;101426.06;;;11.89;100.00
56928;BME280;60850;52.502;13.426;2022-10-03T02:53:41;101431.53;;;11.84;100.00
56928;BME280;60850;52.502;13.426;2022-10-03T02:59:31;101441.28;;;11.85;100.00
56928;BME280;60850;52.502;13.426;2022-10-03T03:02:29;101445.72;;;11.86;100.00
56928;BME280;60850;52.502;13.426;2022-10-03T03:05:23;101444.72;;;11.90;100.00
56928;BME280;60850;52.502;13.426;2022-10-03T03:08:23;101448.16;;;11.98;100.00
56928;BME280;60850;52.502;13.426;2022-10-03T03:11:22;101453.50;;;11.98;100.00
56928;BME280;60850;52.502;13.426;2022-10-03T03:14:30;101449.03;;;11.99;100.00
56928;BME280;60850;52.502;13.426;2022-10-03T03:17:20;101454.22;;;12.05;100.00
56928;BME280;60850;52.502;13.426;2022-10-03T03:20:07;101444.44;;;12.05;100.00
56928;BME280;60850;52.502;13.426;2022-10-03T03:22:52;101445.28;;;12.07;100.00
56928;BME280;60850;52.502;13.426;2022-10-03T03:25:50;101447.09;;;12.05;100.00
56928;BME280;60850;52.502;13.426;2022-10-03T03:28:31;101447.06;;;12.07;100.00
56928;BME280;60850;52.502;13.426;2022-10-03T03:31:08;101447.09;;;12.05;100.00
56928;BME280;60850;52.502;13.426;2022-10-03T03:33:46;101456.91;;;12.03;100.00
56928;BME280;60850;52.502;13.426;2022-10-03T03:36:22;101453.41;;;12.01;100.00
56928;BME280;60850;52.502;13.426;2022-10-03T03:39:02;101461.31;;;12.07;100.00
56928;BME280;60850;52.502;13.426;2022-10-03T03:41:53;101463.97;;;12.07;100.00
56928;BME280;60850;52.502;13.426;2022-10-03T03:44:46;101463.97;;;12.07;100.00
56928;BME280;60850;52.502;13.426;2022-10-03T03:47:40;101465.72;;;12.08;100.00
56928;BME280;60850;52.502;13.426;2022-10-03T03:50:39;101469.19;;;12.14;100.00
56928;BME280;60850;52.502;13.426;2022-10-03T03:53:26;101484.34;;;12.13;100.00
56928;BME280;60850;52.502;13.426;2022-10-03T03:58:59;101486.28;;;12.06;100.00
56928;BME280;60850;52.502;13.426;2022-10-03T04:01:48;101480.00;;;12.07;100.00
56928;BME280;60850;52.502;13.426;2022-10-03T04:04:36;101485.47;;;12.01;100.00
56928;BME280;60850;52.502;13.426;2022-10-03T04:07:15;101483.69;;;12.02;100.00
56928;BME280;60850;52.502;13.426;2022-10-03T04:09:57;101484.56;;;12.02;100.00
56928;BME280;60850;52.502;13.426;2022-10-03T04:12:40;101490.00;;;11.99;100.00
56928;BME280;60850;52.502;13.426;2022-10-03T04:15:24;101487.34;;;11.96;100.00
56928;BME280;60850;52.502;13.426;2022-10-03T04:18:04;101492.78;;;11.93;100.00
56928;BME280;60850;52.502;13.426;2022-10-03T04:21:14;101498.13;;;11.93;100.00
56928;BME280;60850;52.502;13.426;2022-10-03T04:23:59;101490.94;;;11.95;100.00
56928;BME280;60850;52.502;13.426;2022-10-03T04:26:43;101493.56;;;11.98;100.00
56928;BME280;60850;52.502;13.426;2022-10-03T04:29:41;101492.66;;;11.99;100.00
56928;BME280;60850;52.502;13.426;2022-10-03T04:32:32;101497.16;;;11.96;100.00
56928;BME280;60850;52.502;13.426;2022-10-03T04:35:24;101488.31;;;11.94;100.00
56928;BME280;60850;52.502;13.426;2022-10-03T04:38:03;101500.69;;;11.99;100.00
56928;BME280;60850;52.502;13.426;2022-10-03T04:40:42;101491.78;;;11.97;100.00
56928;BME280;60850;52.502;13.426;2022-10-03T04:43:16;101499.81;;;11.97;100.00
56928;BME280;60850;52.502;13.426;2022-10-03T04:45:56;101497.97;;;12.01;100.00
56928;BME280;60850;52.502;13.426;2022-10-03T04:48:34;101503.31;;;12.01;100.00
56928;BME280;60850;52.502;13.426;2022-10-03T04:51:10;101501.47;;;12.03;100.00
56928;BME280;60850;52.502;13.426;2022-10-03T04:53:47;101501.53;;;12.01;100.00
56928;BME280;60850;52.502;13.426;2022-10-03T04:56:37;101511.41;;;11.96;100.00
56928;BME280;60850;52.502;13.426;2022-10-03T04:59:20;101502.50;;;11.96;100.00
56928;BME280;60850;52.502;13.426;2022-10-03T05:01:54;101506.06;;;11.96;100.00
56928;BME280;60850;52.502;13.426;2022-10-03T05:04:33;101511.28;;;12.02;100.00
56928;BME280;60850;52.502;13.426;2022-10-03T05:07:09;101497.16;;;11.96;100.00
56928;BME280;60850;52.502;13.426;2022-10-03T05:09:49;101504.34;;;11.94;100.00
56928;BME280;60850;52.502;13.426;2022-10-03T05:12:27;101518.66;;;11.91;100.00
56928;BME280;60850;52.502;13.426;2022-10-03T05:15:04;101522.22;;;11.92;100.00
56928;BME280;60850;52.502;13.426;2022-10-03T05:17:44;101516.81;;;11.93;100.00
56928;BME280;60850;52.502;13.426;2022-10-03T05:20:18;101521.25;;;11.94;100.00
56928;BME280;60850;52.502;13.426;2022-10-03T05:22:53;101515.91;;;11.94;100.00
56928;BME280;60850;52.502;13.426;2022-10-03T05:25:30;101514.13;;;11.95;100.00
56928;BME280;60850;52.502;13.426;2022-10-03T05:28:08;101517.66;;;11.95;100.00
56928;BME280;60850;52.502;13.426;2022-10-03T05:30:43;101515.84;;;11.97;100.00
56928;BME280;60850;52.502;13.426;2022-10-03T05:33:21;101524.72;;;11.99;100.00
56928;BME280;60850;52.502;13.426;2022-10-03T05:36:03;101526.41;;;12.03;100.00
56928;BME280;60850;52.502;13.426;2022-10-03T05:41:33;101531.72;;;12.06;100.00
56928;BME280;60850;52.502;13.426;2022-10-03T05:44:03;101536.19;;;12.06;100.00
56928;BME280;60850;52.502;13.426;2022-10-03T05:46:42;101545.91;;;12.08;100.00
56928;BME280;60850;52.502;13.426;2022-10-03T05:49:27;101543.25;;;12.08;100.00
56928;BME280;60850;52.502;13.426;2022-10-03T05:52:26;101540.56;;;12.08;100.00
56928;BME280;60850;52.502;13.426;2022-10-03T05:55:24;101548.50;;;12.13;100.00
56928;BME280;60850;52.502;13.426;2022-10-03T05:58:19;101545.69;;;12.21;100.00
56928;BME280;60850;52.502;13.426;2022-10-03T06:01:10;101552.47;;;12.37;100.00
56928;BME280;60850;52.502;13.426;2022-10-03T06:03:58;101549.50;;;12.51;100.00
56928;BME280;60850;52.502;13.426;2022-10-03T06:06:37;101540.28;;;12.64;100.00
56928;BME280;60850;52.502;13.426;2022-10-03T06:09:30;101546.25;;;12.75;100.00
56928;BME280;60850;52.502;13.426;2022-10-03T06:12:04;101547.00;;;12.82;100.00
56928;BME280;60850;52.502;13.426;2022-10-03T06:14:38;101551.53;;;12.80;100.00
56928;BME280;60850;52.502;13.426;2022-10-03T06:17:26;101555.72;;;12.91;100.00
56928;BME280;60850;52.502;13.426;2022-10-03T06:20:03;101563.94;;;12.84;100.00
56928;BME280;60850;52.502;13.426;2022-10-03T06:23:02;101573.59;;;12.91;100.00
56928;BME280;60850;52.502;13.426;2022-10-03T06:28:55;101574.41;;;12.93;100.00
56928;BME280;60850;52.502;13.426;2022-10-03T06:31:46;101582.63;;;12.85;100.00
56928;BME280;60850;52.502;13.426;2022-10-03T06:34:44;101581.63;;;12.91;100.00
56928;BME280;60850;52.502;13.426;2022-10-03T06:40:43;101592.78;;;13.08;100.00
56928;BME280;60850;52.502;13.426;2022-10-03T06:43:38;101589.97;;;13.14;100.00
56928;BME280;60850;52.502;13.426;2022-10-03T06:46:35;101598.69;;;13.24;100.00
56928;BME280;60850;52.502;13.426;2022-10-03T06:49:31;101604.03;;;13.26;100.00
56928;BME280;60850;52.502;13.426;2022-10-03T06:52:32;101606.69;;;13.27;100.00
56928;BME280;60850;52.502;13.426;2022-10-03T06:58:38;101602.56;;;13.50;100.00
56928;BME280;60850;52.502;13.426;2022-10-03T07:04:40;101601.84;;;13.77;100.00
56928;BME280;60850;52.502;13.426;2022-10-03T07:10:19;101597.63;;;14.34;100.00
56928;BME280;60850;52.502;13.426;2022-10-03T07:13:16;101613.03;;;14.58;100.00
56928;BME280;60850;52.502;13.426;2022-10-03T07:22:20;101622.09;;;14.85;100.00
56928;BME280;60850;52.502;13.426;2022-10-03T07:25:23;101629.19;;;14.88;100.00
56928;BME280;60850;52.502;13.426;2022-10-03T07:31:02;101623.53;;;14.67;100.00
56928;BME280;60850;52.502;13.426;2022-10-03T07:37:13;101636.00;;;15.27;100.00
56928;BME280;60850;52.502;13.426;2022-10-03T07:40:14;101632.28;;;15.59;100.00
56928;BME280;60850;52.502;13.426;2022-10-03T07:43:13;101643.50;;;15.46;100.00
56928;BME280;60850;52.502;13.426;2022-10-03T07:46:07;101648.28;;;15.64;100.00
56928;BME280;60850;52.502;13.426;2022-10-03T07:48:54;101644.88;;;15.85;100.00
56928;BME280;60850;52.502;13.426;2022-10-03T07:51:33;101648.94;;;15.71;100.00
56928;BME280;60850;52.502;13.426;2022-10-03T07:54:30;101645.09;;;15.51;100.00
56928;BME280;60850;52.502;13.426;2022-10-03T07:57:15;101652.56;;;15.42;100.00
56928;BME280;60850;52.502;13.426;2022-10-03T08:00:19;101659.97;;;15.05;100.00
56928;BME280;60850;52.502;13.426;2022-10-03T08:06:21;101661.00;;;14.70;100.00
56928;BME280;60850;52.502;13.426;2022-10-03T08:09:05;101667.56;;;14.60;100.00
56928;BME280;60850;52.502;13.426;2022-10-03T08:14:55;101685.13;;;14.72;100.00
56928;BME280;60850;52.502;13.426;2022-10-03T08:17:57;101683.19;;;14.77;100.00
56928;BME280;60850;52.502;13.426;2022-10-03T08:20:40;101682.66;;;14.95;100.00
56928;BME280;60850;52.502;13.426;2022-10-03T08:26:15;101694.09;;;15.02;100.00
56928;BME280;60850;52.502;13.426;2022-10-03T08:28:57;101685.38;;;14.94;100.00
56928;BME280;60850;52.502;13.426;2022-10-03T08:32:19;101691.84;;;15.18;100.00
56928;BME280;60850;52.502;13.426;2022-10-03T08:35:16;101690.66;;;15.26;100.00
56928;BME280;60850;52.502;13.426;2022-10-03T08:38:12;101693.53;;;15.20;100.00
56928;BME280;60850;52.502;13.426;2022-10-03T08:41:02;101707.19;;;15.13;100.00
56928;BME280;60850;52.502;13.426;2022-10-03T08:44:19;101702.66;;;15.15;100.00
56928;BME280;60850;52.502;13.426;2022-10-03T08:47:13;101702.44;;;15.22;100.00
56928;BME280;60850;52.502;13.426;2022-10-03T08:50:06;101704.84;;;15.31;100.00
56928;BME280;60850;52.502;13.426;2022-10-03T08:52:52;101700.09;;;15.69;100.00
56928;BME280;60850;52.502;13.426;2022-10-03T08:55:38;101696.75;;;15.61;100.00
56928;BME280;60850;52.502;13.426;2022-10-03T09:01:16;101690.91;;;16.03;100.00
56928;BME280;60850;52.502;13.426;2022-10-03T09:04:22;101703.78;;;16.19;100.00
56928;BME280;60850;52.502;13.426;2022-10-03T09:13:25;101699.41;;;16.67;100.00
56928;BME280;60850;52.502;13.426;2022-10-03T09:16:32;101699.38;;;16.43;100.00
56928;BME280;60850;52.502;13.426;2022-10-03T09:19:12;101705.28;;;16.53;100.00
56928;BME280;60850;52.502;13.426;2022-10-03T09:22:00;101701.59;;;16.56;100.00
56928;BME280;60850;52.502;13.426;2022-10-03T09:25:09;101703.84;;;16.68;100.00
56928;BME280;60850;52.502;13.426;2022-10-03T09:28:04;101708.50;;;16.63;100.00
56928;BME280;60850;52.502;13.426;2022-10-03T09:30:49;101710.00;;;16.46;100.00
56928;BME280;60850;52.502;13.426;2022-10-03T09:33:55;101717.81;;;16.54;100.00
56928;BME280;60850;52.502;13.426;2022-10-03T09:43:12;101711.72;;;16.99;100.00
56928;BME280;60850;52.502;13.426;2022-10-03T09:46:03;101706.56;;;16.93;100.00
56928;BME280;60850;52.502;13.426;2022-10-03T09:49:10;101697.47;;;17.19;100.00
56928;BME280;60850;52.502;13.426;2022-10-03T09:51:55;101709.75;;;17.26;100.00
56928;BME280;60850;52.502;13.426;2022-10-03T09:54:48;101719.84;;;17.44;100.00
56928;BME280;60850;52.502;13.426;2022-10-03T10:00:26;101717.22;;;17.43;100.00
56928;BME280;60850;52.502;13.426;2022-10-03T10:03:11;101714.03;;;17.32;100.00
56928;BME280;60850;52.502;13.426;2022-10-03T10:08:46;101721.56;;;16.75;100.00
56928;BME280;60850;52.502;13.426;2022-10-03T10:11:35;101707.88;;;16.56;100.00
56928;BME280;60850;52.502;13.426;2022-10-03T10:20:19;101719.41;;;16.60;100.00
56928;BME280;60850;52.502;13.426;2022-10-03T10:23:24;101717.50;;;16.88;100.00
56928;BME280;60850;52.502;13.426;2022-10-03T10:26:29;101714.47;;;17.21;100.00
56928;BME280;60850;52.502;13.426;2022-10-03T10:29:37;101706.91;;;17.30;100.00
56928;BME280;60850;52.502;13.426;2022-10-03T10:32:37;101708.16;;;17.22;100.00
56928;BME280;60850;52.502;13.426;2022-10-03T10:35:50;101707.59;;;17.12;100.00
56928;BME280;60850;52.502;13.426;2022-10-03T10:42:28;101697.97;;;17.52;100.00
56928;BME280;60850;52.502;13.426;2022-10-03T10:45:29;101707.72;;;17.54;100.00
56928;BME280;60850;52.502;13.426;2022-10-03T10:48:45;101698.13;;;17.47;100.00
56928;BME280;60850;52.502;13.426;2022-10-03T10:58:08;101697.22;;;17.25;100.00
56928;BME280;60850;52.502;13.426;2022-10-03T11:01:17;101690.91;;;17.26;100.00
56928;BME280;60850;52.502;13.426;2022-10-03T11:04:11;101687.63;;;17.41;100.00
56928;BME280;60850;52.502;13.426;2022-10-03T11:10:07;101695.84;;;17.82;100.00
56928;BME280;60850;52.502;13.426;2022-10-03T11:16:20;101706.63;;;17.83;100.00
56928;BME280;60850;52.502;13.426;2022-10-03T11:19:21;101699.19;;;17.89;100.00
56928;BME280;60850;52.502;13.426;2022-10-03T11:31:37;101699.94;;;17.92;100.00
56928;BME280;60850;52.502;13.426;2022-10-03T11:34:32;101703.94;;;17.82;100.00
56928;BME280;60850;52.502;13.426;2022-10-03T11:37:18;101706.13;;;17.50;100.00
56928;BME280;60850;52.502;13.426;2022-10-03T11:39:57;101712.69;;;17.43;100.00
56928;BME280;60850;52.502;13.426;2022-10-03T11:42:40;101710.16;;;17.39;100.00
56928;BME280;60850;52.502;13.426;2022-10-03T11:45:21;101708.13;;;17.45;100.00
56928;BME280;60850;52.502;13.426;2022-10-03T11:47:56;101709.59;;;17.76;100.00
56928;BME280;60850;52.502;13.426;2022-10-03T11:50:42;101710.63;;;17.73;100.00
56928;BME280;60850;52.502;13.426;2022-10-03T11:53:18;101710.16;;;17.62;100.00
56928;BME280;60850;52.502;13.426;2022-10-03T11:55:50;101710.44;;;17.54;100.00
56928;BME280;60850;52.502;13.426;2022-10-03T11:58:49;101711.56;;;17.49;100.00
56928;BME280;60850;52.502;13.426;2022-10-03T12:01:26;101708.88;;;17.49;100.00
56928;BME280;60850;52.502;13.426;2022-10-03T12:04:06;101706.75;;;17.57;100.00
56928;BME280;60850;52.502;13.426;2022-10-03T12:06:52;101700.91;;;17.68;100.00
56928;BME280;60850;52.502;13.426;2022-10-03T12:09:46;101698.91;;;17.51;100.00
56928;BME280;60850;52.502;13.426;2022-10-03T12:12:28;101694.78;;;17.42;100.00
56928;BME280;60850;52.502;13.426;2022-10-03T12:15:04;101690.72;;;17.30;100.00
56928;BME280;60850;52.502;13.426;2022-10-03T12:17:42;101685.94;;;17.15;100.00
56928;BME280;60850;52.502;13.426;2022-10-03T12:20:17;101682.41;;;16.90;100.00
56928;BME280;60850;52.502;13.426;2022-10-03T12:22:50;101688.44;;;16.73;100.00
56928;BME280;60850;52.502;13.426;2022-10-03T12:25:21;101685.19;;;16.63;100.00
56928;BME280;60850;52.502;13.426;2022-10-03T12:27:57;101682.56;;;16.37;100.00
56928;BME280;60850;52.502;13.426;2022-10-03T12:30:31;101687.84;;;16.13;100.00
56928;BME280;60850;52.502;13.426;2022-10-03T12:33:22;101703.75;;;15.95;100.00
56928;BME280;60850;52.502;13.426;2022-10-03T12:35:58;101707.56;;;15.87;100.00
56928;BME280;60850;52.502;13.426;2022-10-03T12:38:41;101699.44;;;15.89;100.00
56928;BME280;60850;52.502;13.426;2022-10-03T12:41:22;101699.13;;;15.98;100.00
56928;BME280;60850;52.502;13.426;2022-10-03T12:44:06;101702.00;;;15.93;100.00
56928;BME280;60850;52.502;13.426;2022-10-03T12:46:42;101699.59;;;16.11;100.00
56928;BME280;60850;52.502;13.426;2022-10-03T12:49:15;101692.06;;;16.20;100.00
56928;BME280;60850;52.502;13.426;2022-10-03T12:51:50;101698.50;;;16.43;100.00
56928;BME280;60850;52.502;13.426;2022-10-03T12:54:32;101685.22;;;16.62;100.00
56928;BME280;60850;52.502;13.426;2022-10-03T12:57:26;101685.81;;;16.71;100.00
56928;BME280;60850;52.502;13.426;2022-10-03T13:00:02;101679.31;;;16.77;100.00
56928;BME280;60850;52.502;13.426;2022-10-03T13:02:32;101675.91;;;16.72;100.00
56928;BME280;60850;52.502;13.426;2022-10-03T13:05:29;101675.16;;;16.42;100.00
56928;BME280;60850;52.502;13.426;2022-10-03T13:08:03;101681.59;;;16.13;100.00
56928;BME280;60850;52.502;13.426;2022-10-03T13:10:38;101683.84;;;16.00;100.00
56928;BME280;60850;52.502;13.426;2022-10-03T13:13:21;101691.13;;;15.97;100.00
56928;BME280;60850;52.502;13.426;2022-10-03T13:16:12;101682.72;;;16.06;100.00
56928;BME280;60850;52.502;13.426;2022-10-03T13:18:49;101690.38;;;16.18;100.00
56928;BME280;60850;52.502;13.426;2022-10-03T13:21:20;101690.41;;;16.43;100.00
56928;BME280;60850;52.502;13.426;2022-10-03T13:23:54;101682.50;;;16.63;100.00
56928;BME280;60850;52.502;13.426;2022-10-03T13:26:31;101681.38;;;16.69;100.00
56928;BME280;60850;52.502;13.426;2022-10-03T13:29:30;101677.81;;;16.93;100.00
56928;BME280;60850;52.502;13.426;2022-10-03T13:32:15;101672.41;;;16.93;100.00
56928;BME280;60850;52.502;13.426;2022-10-03T13:35:03;101679.09;;;17.07;100.00
56928;BME280;60850;52.502;13.426;2022-10-03T13:37:59;101678.44;;;17.23;100.00
56928;BME280;60850;52.502;13.426;2022-10-03T13:40:35;101678.69;;;17.39;100.00
56928;BME280;60850;52.502;13.426;2022-10-03T13:43:08;101675.91;;;17.42;100.00
56928;BME280;60850;52.502;13.426;2022-10-03T13:45:42;101679.63;;;17.38;100.00
56928;BME280;60850;52.502;13.426;2022-10-03T13:48:12;101682.47;;;17.35;100.00
56928;BME280;60850;52.502;13.426;2022-10-03T13:50:46;101680.81;;;17.31;100.00
56928;BME280;60850;52.502;13.426;2022-10-03T13:53:21;101681.34;;;17.41;100.00
56928;BME280;60850;52.502;13.426;2022-10-03T13:55:52;101671.69;;;17.35;100.00
56928;BME280;60850;52.502;13.426;2022-10-03T13:58:30;101679.72;;;17.37;100.00
56928;BME280;60850;52.502;13.426;2022-10-03T14:01:29;101680.41;;;17.42;100.00
56928;BME280;60850;52.502;13.426;2022-10-03T14:07:01;101688.19;;;17.49;100.00
56928;BME280;60850;52.502;13.426;2022-10-03T14:09:45;101676.31;;;17.53;100.00
56928;BME280;60850;52.502;13.426;2022-10-03T14:12:24;101687.06;;;17.55;100.00
56928;BME280;60850;52.502;13.426;2022-10-03T14:15:17;101693.66;;;17.48;100.00
56928;BME280;60850;52.502;13.426;2022-10-03T14:17:54;101697.94;;;17.30;100.00
56928;BME280;60850;52.502;13.426;2022-10-03T14:20:27;101688.81;;;17.11;100.00
56928;BME280;60850;52.502;13.426;2022-10-03T14:23:08;101685.69;;;16.98;100.00
56928;BME280;60850;52.502;13.426;2022-10-03T14:25:44;101690.78;;;16.82;100.00
56928;BME280;60850;52.502;13.426;2022-10-03T14:28:18;101690.38;;;16.68;100.00
56928;BME280;60850;52.502;13.426;2022-10-03T14:31:01;101690.59;;;16.62;100.00
56928;BME280;60850;52.502;13.426;2022-10-03T14:33:38;101690.34;;;16.44;100.00
56928;BME280;60850;52.502;13.426;2022-10-03T14:36:17;101684.47;;;16.33;100.00
56928;BME280;60850;52.502;13.426;2022-10-03T14:39:08;101687.06;;;16.36;100.00
56928;BME280;60850;52.502;13.426;2022-10-03T14:41:44;101682.50;;;16.38;100.00
56928;BME280;60850;52.502;13.426;2022-10-03T14:44:17;101684.84;;;16.47;100.00
56928;BME280;60850;52.502;13.426;2022-10-03T14:46:50;101682.16;;;16.47;100.00
56928;BME280;60850;52.502;13.426;2022-10-03T14:49:25;101682.69;;;16.32;100.00
56928;BME280;60850;52.502;13.426;2022-10-03T14:51:57;101679.41;;;16.24;100.00
56928;BME280;60850;52.502;13.426;2022-10-03T14:54:27;101675.38;;;16.11;100.00
56928;BME280;60850;52.502;13.426;2022-10-03T14:56:56;101671.94;;;16.07;100.00
56928;BME280;60850;52.502;13.426;2022-10-03T14:59:25;101676.38;;;16.08;100.00
56928;BME280;60850;52.502;13.426;2022-10-03T15:01:58;101679.00;;;16.10;100.00
56928;BME280;60850;52.502;13.426;2022-10-03T15:04:29;101666.56;;;16.07;100.00
56928;BME280;60850;52.502;13.426;2022-10-03T15:06:58;101677.25;;;16.09;100.00
56928;BME280;60850;52.502;13.426;2022-10-03T15:09:40;101669.91;;;16.14;100.00
56928;BME280;60850;52.502;13.426;2022-10-03T15:12:09;101674.19;;;16.19;100.00
56928;BME280;60850;52.502;13.426;2022-10-03T15:14:41;101668.19;;;16.11;100.00
56928;BME280;60850;52.502;13.426;2022-10-03T15:17:19;101664.63;;;16.11;100.00
56928;BME280;60850;52.502;13.426;2022-10-03T15:19:50;101665.03;;;15.99;100.00
56928;BME280;60850;52.502;13.426;2022-10-03T15:22:28;101661.91;;;15.86;100.00
56928;BME280;60850;52.502;13.426;2022-10-03T15:25:00;101667.78;;;15.71;100.00
56928;BME280;60850;52.502;13.426;2022-10-03T15:27:30;101666.28;;;15.62;100.00
56928;BME280;60850;52.502;13.426;2022-10-03T15:30:00;101670.88;;;15.57;100.00
56928;BME280;60850;52.502;13.426;2022-10-03T15:32:33;101670.25;;;15.49;100.00
56928;BME280;60850;52.502;13.426;2022-10-03T15:35:05;101674.44;;;15.57;100.00
56928;BME280;60850;52.502;13.426;2022-10-03T15:37:35;101669.06;;;15.57;100.00
56928;BME280;60850;52.502;13.426;2022-10-03T15:40:07;101674.44;;;15.57;100.00
56928;BME280;60850;52.502;13.426;2022-10-03T15:42:48;101681.63;;;15.57;100.00
56928;BME280;60850;52.502;13.426;2022-10-03T15:45:20;101670.88;;;15.57;100.00
56928;BME280;60850;52.502;13.426;2022-10-03T15:47:49;101673.56;;;15.57;100.00
56928;BME280;60850;52.502;13.426;2022-10-03T15:50:22;101670.88;;;15.57;100.00